createdAt,value
2023-03-04T00:01:05.402Z,59.69
2023-03-04T00:03:54.897Z,59.79
2023-03-04T00:06:43.543Z,59.96
2023-03-04T00:09:33.764Z,59.88
2023-03-04T00:12:22.457Z,60.00
2023-03-04T00:15:12.536Z,59.94
2023-03-04T00:18:01.124Z,59.87
2023-03-04T00:20:50.885Z,60.03
2023-03-04T00:23:41.260Z,59.96
2023-03-04T00:26:32.492Z,59.88
2023-03-04T00:29:22.094Z,59.87
2023-03-04T00:32:11.821Z,60.23
2023-03-04T00:35:01.434Z,60.06
2023-03-04T00:37:50.810Z,60.33
2023-03-04T00:40:39.377Z,60.28
2023-03-04T00:43:29.827Z,60.00
2023-03-04T00:46:19.316Z,60.03
2023-03-04T00:49:07.942Z,60.17
2023-03-04T00:51:57.620Z,60.10
2023-03-04T00:54:46.167Z,60.24
2023-03-04T00:57:37.300Z,60.29
2023-03-04T01:00:27.486Z,60.32
2023-03-04T01:03:17.260Z,60.43
2023-03-04T01:06:06.297Z,60.33
2023-03-04T01:08:55.823Z,60.38
2023-03-04T01:11:44.881Z,60.38
2023-03-04T01:14:34.635Z,60.34
2023-03-04T01:17:24.646Z,60.23
2023-03-04T01:20:14.882Z,60.38
2023-03-04T01:23:03.473Z,60.13
2023-03-04T01:29:07.106Z,60.21
2023-03-04T01:31:56.366Z,60.32
2023-03-04T01:34:47.037Z,60.44
2023-03-04T01:37:37.356Z,60.57
2023-03-04T01:40:26.095Z,60.81
2023-03-04T01:43:22.760Z,60.57
2023-03-04T01:46:15.147Z,60.88
2023-03-04T01:49:05.335Z,60.65
2023-03-04T01:51:56.387Z,60.94
2023-03-04T01:54:45.400Z,60.89
2023-03-04T01:57:37.388Z,60.80
2023-03-04T02:00:30.491Z,61.03
2023-03-04T02:03:21.134Z,60.93
2023-03-04T02:06:09.891Z,61.02
2023-03-04T02:09:01.549Z,61.14
2023-03-04T02:11:52.488Z,61.18
2023-03-04T02:14:41.970Z,61.04
2023-03-04T02:17:33.380Z,61.01
2023-03-04T02:20:31.642Z,60.98
2023-03-04T02:23:27.038Z,60.94
2023-03-04T02:26:21.049Z,61.00
2023-03-04T02:29:14.967Z,60.94
2023-03-04T02:32:04.733Z,60.77
2023-03-04T02:34:55.074Z,60.88
2023-03-04T02:37:44.527Z,61.00
2023-03-04T02:40:35.766Z,60.99
2023-03-04T02:43:26.522Z,61.04
2023-03-04T02:46:15.537Z,60.92
2023-03-04T02:49:04.772Z,61.00
2023-03-04T02:51:54.834Z,60.88
2023-03-04T02:54:43.440Z,60.93
2023-03-04T02:57:34.125Z,60.98
2023-03-04T03:00:24.742Z,61.06
2023-03-04T03:03:14.261Z,61.04
2023-03-04T03:06:04.449Z,60.91
2023-03-04T03:08:53.150Z,60.91
2023-03-04T03:11:43.373Z,60.95
2023-03-04T03:14:32.137Z,60.97
2023-03-04T03:17:23.752Z,60.88
2023-03-04T03:20:13.987Z,61.02
2023-03-04T03:23:03.508Z,61.01
2023-03-04T03:25:52.223Z,60.77
2023-03-04T03:28:41.898Z,60.89
2023-03-04T03:31:30.616Z,60.82
2023-03-04T03:34:22.401Z,60.79
2023-03-04T03:37:11.813Z,60.77
2023-03-04T03:40:01.341Z,60.89
2023-03-04T03:42:50.294Z,60.76
2023-03-04T03:45:38.944Z,60.64
2023-03-04T03:48:28.419Z,60.79
2023-03-04T03:51:19.223Z,60.82
2023-03-04T03:54:07.823Z,60.82
2023-03-04T03:56:57.984Z,60.99
2023-03-04T03:59:47.059Z,61.18
2023-03-04T04:02:36.150Z,61.32
2023-03-04T04:05:24.880Z,61.23
2023-03-04T04:08:17.523Z,61.20
2023-03-04T04:11:06.377Z,61.34
2023-03-04T04:13:56.147Z,61.21
2023-03-04T04:16:44.803Z,61.31
2023-03-04T04:19:34.378Z,61.31
2023-03-04T04:22:23.092Z,61.21
2023-03-04T04:25:13.827Z,61.34
2023-03-04T04:32:13.603Z,61.79
2023-03-04T04:35:02.171Z,61.68
2023-03-04T04:37:51.872Z,61.76
2023-03-04T04:40:42.956Z,61.79
2023-03-04T04:43:31.946Z,61.92
2023-03-04T04:46:21.607Z,61.93
2023-03-04T04:49:10.837Z,62.11
2023-03-04T04:51:59.955Z,61.80
2023-03-04T04:54:48.510Z,61.80
2023-03-04T04:57:38.969Z,61.85
2023-03-04T05:00:28.256Z,61.92
2023-03-04T05:03:18.502Z,61.71
2023-03-04T05:06:10.717Z,61.81
2023-03-04T05:08:59.793Z,61.98
2023-03-04T05:11:48.342Z,61.78
2023-03-04T05:14:40.096Z,61.93
2023-03-04T05:17:28.924Z,62.09
2023-03-04T05:20:18.300Z,62.05
2023-03-04T05:23:06.907Z,62.12
2023-03-04T05:25:56.594Z,62.29
2023-03-04T05:28:46.734Z,62.36
2023-03-04T05:31:36.686Z,62.06
2023-03-04T05:34:26.148Z,61.96
2023-03-04T05:37:14.663Z,61.95
2023-03-04T05:40:03.311Z,61.85
2023-03-04T05:42:51.840Z,61.92
2023-03-04T05:45:41.602Z,61.98
2023-03-04T05:48:31.640Z,61.78
2023-03-04T05:51:21.205Z,61.83
2023-03-04T05:54:10.241Z,61.80
2023-03-04T05:56:59.256Z,61.84
2023-03-04T05:59:47.880Z,61.72
2023-03-04T06:02:38.360Z,61.80
2023-03-04T06:05:28.266Z,61.72
2023-03-04T06:08:17.342Z,61.84
2023-03-04T06:11:07.213Z,61.67
2023-03-04T06:13:56.325Z,61.74
2023-03-04T06:16:44.917Z,61.54
2023-03-04T06:19:33.772Z,61.71
2023-03-04T06:22:24.084Z,61.72
2023-03-04T06:25:12.984Z,61.50
2023-03-04T06:28:01.901Z,61.59
2023-03-04T06:30:53.320Z,61.65
2023-03-04T06:33:41.870Z,61.60
2023-03-04T06:36:31.112Z,61.58
2023-03-04T06:39:21.111Z,61.48
2023-03-04T06:42:09.703Z,61.50
2023-03-04T06:44:59.064Z,61.50
2023-03-04T06:47:48.062Z,61.62
2023-03-04T06:50:36.682Z,61.55
2023-03-04T06:53:26.009Z,61.73
2023-03-04T06:56:16.954Z,61.80
2023-03-04T06:59:06.904Z,61.87
2023-03-04T07:01:55.995Z,61.74
2023-03-04T07:04:44.598Z,61.84
2023-03-04T07:07:33.563Z,61.80
2023-03-04T07:10:22.107Z,61.91
2023-03-04T07:13:13.526Z,61.95
2023-03-04T07:16:02.497Z,61.86
2023-03-04T07:18:51.980Z,62.06
2023-03-04T07:21:40.590Z,62.25
2023-03-04T07:24:29.777Z,62.03
2023-03-04T07:27:18.827Z,62.17
2023-03-04T07:30:11.112Z,62.28
2023-03-04T07:33:00.481Z,62.37
2023-03-04T07:35:49.063Z,62.47
2023-03-04T07:38:37.672Z,62.40
2023-03-04T07:41:28.655Z,62.33
2023-03-04T07:44:17.203Z,62.28
2023-03-04T07:47:07.906Z,62.28
2023-03-04T07:49:57.117Z,62.73
2023-03-04T07:52:47.779Z,62.30
2023-03-04T07:55:36.278Z,61.99
2023-03-04T07:58:25.704Z,61.75
2023-03-04T08:01:17.552Z,61.43
2023-03-04T08:04:08.944Z,61.18
2023-03-04T08:06:58.028Z,61.24
2023-03-04T08:09:47.008Z,61.13
2023-03-04T08:12:35.791Z,60.88
2023-03-04T08:15:26.302Z,60.55
2023-03-04T08:18:14.851Z,60.44
2023-03-04T08:21:09.656Z,60.05
2023-03-04T08:23:59.919Z,60.12
2023-03-04T08:26:50.943Z,59.91
2023-03-04T08:29:41.388Z,59.75
2023-03-04T08:32:30.057Z,59.53
2023-03-04T08:35:19.815Z,59.38
2023-03-04T08:38:09.726Z,59.07
2023-03-04T08:41:00.439Z,58.91
2023-03-04T08:43:48.983Z,58.67
2023-03-04T08:46:39.422Z,58.49
2023-03-04T08:49:27.963Z,58.26
2023-03-04T08:52:17.397Z,58.08
2023-03-04T08:55:08.462Z,57.88
2023-03-04T08:57:57.395Z,57.58
2023-03-04T09:00:50.110Z,57.09
2023-03-04T09:03:39.641Z,56.84
2023-03-04T09:06:28.308Z,56.46
2023-03-04T09:09:16.886Z,56.32
2023-03-04T09:12:07.131Z,56.30
2023-03-04T09:15:10.335Z,56.01
2023-03-04T09:18:00.235Z,55.62
2023-03-04T09:20:50.521Z,55.11
2023-03-04T09:23:40.056Z,55.03
2023-03-04T09:26:30.822Z,54.84
2023-03-04T09:29:20.905Z,54.53
2023-03-04T09:32:10.441Z,54.80
2023-03-04T09:34:59.267Z,54.61
2023-03-04T09:37:48.912Z,54.16
2023-03-04T09:40:42.486Z,53.45
2023-03-04T09:43:32.189Z,53.72
2023-03-04T09:46:34.120Z,53.54
2023-03-04T09:49:24.121Z,53.42
2023-03-04T09:52:25.379Z,53.16
2023-03-04T09:55:22.477Z,52.82
2023-03-04T09:58:23.535Z,52.60
2023-03-04T10:01:21.049Z,52.23
2023-03-04T10:04:17.606Z,52.10
2023-03-04T10:07:08.728Z,52.00
2023-03-04T10:10:03.484Z,51.46
2023-03-04T10:12:56.513Z,51.53
2023-03-04T10:15:51.118Z,51.32
2023-03-04T10:18:45.549Z,51.09
2023-03-04T10:21:40.238Z,50.68
2023-03-04T10:24:31.511Z,50.78
2023-03-04T10:27:21.406Z,50.45
2023-03-04T10:30:21.017Z,50.61
2023-03-04T10:33:14.280Z,50.61
2023-03-04T10:36:06.508Z,50.66
2023-03-04T10:38:59.264Z,51.01
2023-03-04T10:41:58.896Z,51.05
2023-03-04T10:44:54.055Z,50.48
2023-03-04T10:47:54.182Z,50.37
2023-03-04T10:50:42.745Z,50.55
2023-03-04T10:53:38.709Z,50.61
2023-03-04T10:56:35.514Z,50.32
2023-03-04T10:59:46.987Z,50.30
2023-03-04T11:02:38.171Z,50.38
2023-03-04T11:05:27.578Z,51.07
2023-03-04T11:08:20.197Z,50.93
2023-03-04T11:11:24.470Z,50.62
2023-03-04T11:14:22.661Z,50.77
2023-03-04T11:17:23.630Z,50.94
2023-03-04T11:20:19.904Z,51.27
2023-03-04T11:23:15.849Z,51.10
2023-03-04T11:26:11.695Z,51.17
2023-03-04T11:29:07.024Z,51.63
2023-03-04T11:32:04.172Z,51.16
2023-03-04T11:35:01.031Z,51.18
2023-03-04T11:37:55.974Z,51.22
2023-03-04T11:40:48.305Z,51.30
2023-03-04T11:43:38.951Z,51.30
2023-03-04T11:47:06.975Z,51.43
2023-03-04T11:50:17.366Z,51.36
2023-03-04T11:53:22.082Z,51.43
2023-03-04T11:56:31.647Z,51.47
2023-03-04T11:59:53.791Z,51.40
2023-03-04T12:02:51.471Z,51.67
2023-03-04T12:05:52.540Z,51.72
2023-03-04T12:09:01.601Z,51.77
2023-03-04T12:12:02.968Z,51.98
2023-03-04T12:15:02.696Z,51.82
2023-03-04T12:18:13.742Z,51.89
2023-03-04T12:21:18.296Z,51.78
2023-03-04T12:24:32.597Z,51.67
2023-03-04T12:27:29.147Z,51.70
2023-03-04T12:30:29.317Z,51.68
2023-03-04T12:33:27.269Z,51.88
2023-03-04T12:36:27.650Z,51.89
2023-03-04T12:39:31.202Z,52.00
2023-03-04T12:42:30.968Z,52.08
2023-03-04T12:45:27.560Z,51.98
2023-03-04T12:48:28.852Z,52.17
2023-03-04T12:51:30.845Z,52.44
2023-03-04T12:54:28.078Z,52.30
2023-03-04T12:57:20.963Z,52.22
2023-03-04T13:00:24.292Z,52.30
2023-03-04T13:03:18.415Z,52.51
2023-03-04T13:06:26.772Z,52.91
2023-03-04T13:09:24.993Z,52.59
2023-03-04T13:12:21.609Z,52.64
2023-03-04T13:15:32.343Z,52.54
2023-03-04T13:18:37.248Z,52.50
2023-03-04T13:21:29.971Z,52.90
2023-03-04T13:24:47.707Z,52.83
2023-03-04T13:27:48.590Z,52.72
2023-03-04T13:31:06.741Z,52.83
2023-03-04T13:34:00.893Z,52.96
2023-03-04T13:37:04.425Z,52.93
2023-03-04T13:40:27.513Z,53.04
2023-03-04T13:43:39.599Z,53.33
2023-03-04T13:46:43.862Z,53.13
2023-03-04T13:49:32.559Z,53.16
2023-03-04T13:52:51.403Z,53.11
2023-03-04T13:55:43.431Z,53.07
2023-03-04T13:58:32.109Z,53.05
2023-03-04T14:01:26.524Z,53.07
2023-03-04T14:04:19.989Z,52.97
2023-03-04T14:07:22.173Z,53.13
2023-03-04T14:10:24.039Z,53.21
2023-03-04T14:13:13.447Z,53.18
2023-03-04T14:16:02.058Z,53.34
2023-03-04T14:19:07.019Z,53.22
2023-03-04T14:21:56.140Z,53.28
2023-03-04T14:24:57.465Z,53.24
2023-03-04T14:27:47.972Z,53.56
2023-03-04T14:30:43.759Z,53.47
2023-03-04T14:33:33.702Z,53.56
2023-03-04T14:36:25.894Z,53.64
2023-03-04T14:39:19.557Z,53.69
2023-03-04T14:42:13.496Z,53.80
2023-03-04T14:45:04.164Z,53.63
2023-03-04T14:47:55.681Z,53.78
2023-03-04T14:50:50.178Z,53.93
2023-03-04T14:53:55.278Z,54.04
2023-03-04T14:56:46.305Z,54.00
2023-03-04T14:59:36.485Z,54.19
2023-03-04T15:02:32.480Z,54.00
2023-03-04T15:05:26.251Z,54.11
2023-03-04T15:08:24.127Z,53.99
2023-03-04T15:11:24.322Z,54.01
2023-03-04T15:14:45.927Z,54.06
2023-03-04T15:17:39.112Z,54.18
2023-03-04T15:20:29.997Z,54.18
2023-03-04T15:23:19.768Z,54.06
2023-03-04T15:26:11.700Z,54.16
2023-03-04T15:29:00.963Z,53.94
2023-03-04T15:31:49.738Z,53.88
2023-03-04T15:34:40.395Z,54.29
2023-03-04T15:37:30.965Z,54.32
2023-03-04T15:40:26.426Z,54.57
2023-03-04T15:43:17.204Z,54.35
2023-03-04T15:46:06.307Z,54.35
2023-03-04T15:48:56.280Z,54.45
2023-03-04T15:51:46.273Z,54.52
2023-03-04T15:54:35.623Z,54.62
2023-03-04T15:57:26.738Z,54.65
2023-03-04T16:00:18.075Z,54.71
2023-03-04T16:03:06.596Z,54.73
2023-03-04T16:05:56.724Z,54.76
2023-03-04T16:08:47.411Z,54.97
2023-03-04T16:11:42.534Z,54.90
2023-03-04T16:14:31.017Z,55.03
2023-03-04T16:17:21.244Z,55.00
2023-03-04T16:20:12.952Z,55.08
2023-03-04T16:23:04.180Z,54.91
2023-03-04T16:25:57.365Z,55.25
2023-03-04T16:28:46.435Z,55.35
2023-03-04T16:31:34.987Z,55.39
2023-03-04T16:34:25.236Z,55.42
2023-03-04T16:37:19.664Z,55.38
2023-03-04T16:40:12.632Z,55.27
2023-03-04T16:43:02.548Z,55.11
2023-03-04T16:45:53.011Z,55.08
2023-03-04T16:48:41.909Z,55.04
2023-03-04T16:51:35.664Z,55.04
2023-03-04T16:54:29.926Z,54.92
2023-03-04T16:57:19.115Z,55.03
2023-03-04T17:00:11.091Z,55.00
2023-03-04T17:03:02.264Z,54.98
2023-03-04T17:05:51.369Z,54.96
2023-03-04T17:08:40.014Z,55.03
2023-03-04T17:11:29.215Z,55.04
2023-03-04T17:14:17.722Z,54.93
2023-03-04T17:17:09.011Z,55.02
2023-03-04T17:19:57.899Z,55.07
2023-03-04T17:22:47.573Z,55.14
2023-03-04T17:25:36.116Z,55.00
2023-03-04T17:28:24.857Z,55.29
2023-03-04T17:31:15.519Z,55.37
2023-03-04T17:34:05.394Z,55.30
2023-03-04T17:36:55.553Z,55.28
2023-03-04T17:39:44.512Z,55.39
2023-03-04T17:42:33.107Z,55.37
2023-03-04T17:45:21.685Z,55.42
2023-03-04T17:48:14.977Z,55.47
2023-03-04T17:51:06.146Z,55.51
2023-03-04T17:53:55.814Z,55.57
2023-03-04T17:56:44.898Z,55.60
2023-03-04T17:59:33.727Z,55.56
2023-03-04T18:02:22.587Z,55.71
2023-03-04T18:05:11.883Z,55.64
2023-03-04T18:08:01.746Z,55.67
2023-03-04T18:10:50.845Z,55.53
2023-03-04T18:13:40.018Z,55.75
2023-03-04T18:16:31.732Z,55.91
2023-03-04T18:19:21.544Z,55.92
2023-03-04T18:22:13.734Z,55.76
2023-03-04T18:25:03.701Z,56.00
2023-03-04T18:27:53.351Z,55.93
2023-03-04T18:30:41.926Z,55.79
2023-03-04T18:33:32.978Z,56.03
2023-03-04T18:36:21.805Z,55.92
2023-03-04T18:39:11.432Z,55.82
2023-03-04T18:42:02.599Z,55.98
2023-03-04T18:44:51.639Z,56.01
2023-03-04T18:47:41.529Z,55.96
2023-03-04T18:50:30.453Z,56.04
2023-03-04T18:53:19.244Z,56.09
2023-03-04T18:56:12.408Z,56.07
2023-03-04T18:59:03.301Z,56.26
2023-03-04T19:01:54.106Z,56.34
2023-03-04T19:04:42.632Z,56.28
2023-03-04T19:07:32.149Z,56.47
2023-03-04T19:10:21.529Z,56.41
2023-03-04T19:13:10.124Z,56.51
2023-03-04T19:16:00.299Z,56.50
2023-03-04T19:18:49.228Z,56.52
2023-03-04T19:21:39.217Z,56.76
2023-03-04T19:24:28.128Z,56.79
2023-03-04T19:27:16.688Z,56.90
2023-03-04T19:30:08.525Z,56.79
2023-03-04T19:32:59.688Z,56.85
2023-03-04T19:35:48.850Z,56.99
2023-03-04T19:38:37.913Z,57.04
2023-03-04T19:41:26.978Z,57.00
2023-03-04T19:44:15.491Z,57.04
2023-03-04T19:47:04.677Z,57.14
2023-03-04T19:49:55.406Z,57.12
2023-03-04T19:52:44.718Z,57.19
2023-03-04T19:55:38.452Z,57.47
2023-03-04T19:58:26.970Z,57.37
2023-03-04T20:01:28.199Z,57.71
2023-03-04T20:04:19.712Z,57.72
2023-03-04T20:07:10.492Z,57.96
2023-03-04T20:09:59.328Z,57.84
2023-03-04T20:12:47.835Z,57.86
2023-03-04T20:15:37.827Z,57.86
2023-03-04T20:18:26.347Z,57.93
2023-03-04T20:21:15.906Z,57.88
2023-03-04T20:24:07.084Z,58.04
2023-03-04T20:26:57.045Z,58.22
2023-03-04T20:29:46.224Z,58.27
2023-03-04T20:32:35.537Z,58.40
2023-03-04T20:35:24.683Z,58.50
2023-03-04T20:38:15.135Z,58.47
2023-03-04T20:41:06.327Z,58.64
2023-03-04T20:43:55.637Z,58.68
2023-03-04T20:46:46.228Z,58.87
2023-03-04T20:49:35.704Z,58.64
2023-03-04T20:52:24.243Z,58.66
2023-03-04T20:55:13.618Z,58.71
2023-03-04T20:58:04.487Z,58.68
2023-03-04T21:00:54.303Z,58.63
2023-03-04T21:03:43.047Z,58.67
2023-03-04T21:06:32.818Z,58.64
2023-03-04T21:09:23.525Z,58.73
2023-03-04T21:12:13.247Z,58.77
2023-03-04T21:15:03.335Z,58.74
2023-03-04T21:17:52.425Z,58.87
2023-03-04T21:20:41.876Z,58.92
2023-03-04T21:23:30.654Z,58.71
2023-03-04T21:26:20.178Z,58.88
2023-03-04T21:29:09.613Z,58.90
2023-03-04T21:32:20.725Z,58.96
2023-03-04T21:35:15.221Z,58.75
2023-03-04T21:38:04.413Z,58.72
2023-03-04T21:40:53.738Z,58.85
2023-03-04T21:43:42.286Z,58.79
2023-03-04T21:46:31.544Z,58.95
2023-03-04T21:49:21.583Z,58.97
2023-03-04T21:52:11.092Z,58.98
2023-03-04T21:55:00.583Z,58.82
2023-03-04T21:57:49.208Z,58.88
2023-03-04T22:00:39.237Z,58.92
2023-03-04T22:03:28.701Z,58.88
2023-03-04T22:06:21.908Z,59.01
2023-03-04T22:09:12.176Z,59.03
2023-03-04T22:12:00.698Z,59.10
2023-03-04T22:14:50.112Z,59.23
2023-03-04T22:17:38.787Z,59.15
2023-03-04T22:20:28.433Z,59.38
2023-03-04T22:23:20.881Z,59.25
2023-03-04T22:26:12.528Z,59.29
2023-03-04T22:29:02.955Z,59.28
2023-03-04T22:31:51.585Z,59.54
2023-03-04T22:34:41.149Z,59.49
2023-03-04T22:37:30.088Z,59.48
2023-03-04T22:40:20.691Z,59.47
2023-03-04T22:43:09.884Z,59.71
2023-03-04T22:46:00.413Z,59.85
2023-03-04T22:48:49.889Z,59.70
2023-03-04T22:51:40.996Z,59.72
2023-03-04T22:54:30.136Z,59.67
2023-03-04T22:57:20.013Z,59.81
2023-03-04T23:00:19.138Z,59.91
2023-03-04T23:03:08.528Z,59.90
2023-03-04T23:06:07.020Z,60.15
2023-03-04T23:08:55.607Z,60.18
2023-03-04T23:11:44.443Z,60.21
2023-03-04T23:14:34.344Z,60.30
2023-03-04T23:17:24.082Z,60.46
2023-03-04T23:20:14.521Z,60.21
2023-03-04T23:23:03.930Z,60.38
2023-03-04T23:25:53.566Z,60.51
2023-03-04T23:28:42.240Z,60.67
2023-03-04T23:31:34.578Z,60.48
2023-03-04T23:34:23.651Z,60.53
2023-03-04T23:37:12.156Z,60.67
2023-03-04T23:40:01.771Z,60.83
2023-03-04T23:42:50.470Z,60.80
2023-03-04T23:45:40.737Z,60.69
2023-03-04T23:48:30.646Z,60.73
2023-03-04T23:51:21.713Z,60.76
2023-03-04T23:54:10.256Z,60.73
2023-03-04T23:57:00.994Z,60.74
2023-03-04T23:59:49.521Z,60.67
